Brightwood, OR

9:48 AM PST on February 12, 2016 (GMT -0800)
Moen Court | | Change Station
CLOSE
Current Station
Personal Weather Station
Location: Rhododendron, OR
Elevation: 1371 ft
Nearby Weather Stations

Elev 1371 ft 45.36 °N, 121.98 °W | Updated 2 minutes ago

Overcast
Overcast
49.5 °F
Feels Like 50 °F
N
0.0
Wind Variable Wind from East
Gusts 4.0 mph

Today
High -- | Low -- °F
--% Chance of Precip.
Yesterday
High -- | Low -- °F
Precip. -- in
Pressure 30.15 in
Visibility 10.0 miles
Clouds Mostly Cloudy 5500 ft
Overcast 7500 ft
Windchill 50 °F
Dew Point 25 °F
Humidity 38%
Rainfall 0.04 in
Snow Depth Not available.
7:14 AM 5:30 PM
Waxing Crescent, 22% visible
METAR KTTD 121653Z 09015KT 10SM BKN055 OVC075 11/06 A3015 RMK AO2 SLP209 T01060061
Pressure 30.15 in
Visibility 10.0 miles
Clouds Mostly Cloudy 5500 ft
Overcast 7500 ft
Windchill 50 °F
Dew Point 25 °F
Humidity 38%
Rainfall 0.04 in
Snow Depth Not available.
7:14 AM 5:30 PM
Waxing Crescent, 22% visible
METAR KTTD 121653Z 09015KT 10SM BKN055 OVC075 11/06 A3015 RMK AO2 SLP209 T01060061

10-Day Weather Forecast

Almanac

Astronomy

Feb. 12, 2016 Rise Set
Actual Time
Civil Twilight
Nautical Twilight
Astronomical Twilight
Moon
Length of Visible Light
Length of Day
Tomorrow will be .
, % of the Moon is Illuminated

Today's Extremes

State Highs State Lows

Community

WunderPhotos

Upload Photos

1,892,354 photos uploaded!

WunderBlog® & News

Nearby

Air Quality

  Air Quality AQ Index Pollutant
Not available.

Snow Depth

Station Depth Elevation

Earthquake Activity

City Distance Mag. Time & Date
Minimum magnitude displayed is 2.5.

Coastal Water Temperatures

Place Temperature

Stations

Nearby Weather Stations

Station Location Temp. Windchill Dew Point Humidity Wind Precip. Elev Updated Type
                   

Watches & Warnings

There are currently no watches in effect.